Tropical Cyclones
[Index]
Main Index Home Page Stock Weather Photos Extreme Storms Discussion Storm News and Storm Chasing Reports Tropical Cyclones / Hurricanes / Typhoons Weather Data and Links Wild Fires / Bushfires Weather Observation Techniques Weather Picture Catalogue Tornado Pictures and Reports Stock Video Footage and DVDs for sale
Season 2015-2016 Tropical Cyclone AMOS Track Map
Season 2015-2016 Summaries: [BoM-AU] [JTWC-AU] [JTWC-SIO] [JTWC-SPAC] [JTWC-SH]
<<- Previous TC | JTWC 2015-2016 Season | Next TC ->>

click for intensity scale information  Lat/long Grid: Show Hide

 Date Labels: Show Hide

Joint Typhoon Warning Centre Cyclone Data

Name: AMOS

17 Apr 2016 06:00 UTC to 24 Apr 2016 06:00 UTC

    date/time    lat    long     hPa   cat  kts
2016-04-17 06   17.0   179.4W   1002         25          
2016-04-17 12   16.5   178.4W   1002         25          
2016-04-17 18   16.2   177.5W   1000         30          
2016-04-18 00   15.9   176.8W   1000         30          
2016-04-18 06   15.5   176.3W   1000         30          
2016-04-18 12   15.1   176.0W   1000         30          
2016-04-18 18   14.6   175.8W   1000         30          
2016-04-19 00   14.3   176.0W   1000         30          
2016-04-19 06   14.1   176.2W   1000         30          
2016-04-19 12   13.8   176.8W   1002         30          
2016-04-19 18   13.5   177.5W   1000         30          
2016-04-20 00   13.2   178.1W   1000         30          
2016-04-20 06   13.0   178.5W    996         35          
2016-04-20 12   12.7   179.1W    993    1    40          
2016-04-20 18   12.5   179.6W    985    1    50          
2016-04-21 00   12.8   179.5W    985    1    50          
2016-04-21 06   12.7   179.2W    985    1    50          
2016-04-21 12   12.6   178.9W    982    2    55          
2016-04-21 12   12.6   178.9W    982    2    55          
2016-04-21 18   12.7   178.3W    978    2    60          
2016-04-21 18   12.7   178.3W    978    2    60          
2016-04-22 00   12.5   177.4W    970    2    70          
2016-04-22 00   12.5   177.4W    970    2    70          
2016-04-22 06   12.4   177.1W    963    3    80          
2016-04-22 06   12.4   177.1W    963    3    80          
2016-04-22 06   12.4   177.1W    963    3    80          
2016-04-22 09   12.3   176.7W    959    3    85          
2016-04-22 09   12.3   176.7W    959    3    85          
2016-04-22 09   12.3   176.7W    959    3    85          
2016-04-22 12   12.3   176.4W    956    3    90          
2016-04-22 12   12.3   176.4W    956    3    90          
2016-04-22 12   12.3   176.4W    956    3    90          
2016-04-22 18   12.3   175.6W    956    3    90          
2016-04-22 18   12.3   175.6W    956    3    90          
2016-04-22 18   12.3   175.6W    956    3    90          
2016-04-23 00   12.4   174.7W    959    3    85          
2016-04-23 00   12.4   174.7W    959    3    85          
2016-04-23 00   12.4   174.7W    959    3    85          
2016-04-23 06   12.9   173.2W    963    3    80          
2016-04-23 06   12.9   173.2W    963    3    80          
2016-04-23 06   12.9   173.2W    963    3    80          
2016-04-23 12   13.5   171.5W    982    2    55          
2016-04-23 12   13.5   171.5W    982    2    55          
2016-04-23 18   13.7   170.6W    993    1    40          
2016-04-24 00   13.7   169.9W    996         35          
2016-04-24 06   13.5   169.3W   1000         30          
Winds are 1-min average.

Tropical cyclone tracks developed by Michael Bath using data from the Joint Typhoon Warning Centre Best Tracks and Google Maps.


[Australian Severe Weather index] [Copyright Notice] [Email Contacts] [Search This Site] [Privacy Policy]
Document: tropical_cyclone_amos.htm Updated: 28 June 2017